sensor_id;sensor_type;location;lat;lon;timestamp;temperature;humidity
77985;DHT22;67177;47.240;-1.546;2023-02-28T00:01:22;2.70;49.70
77985;DHT22;67177;47.240;-1.546;2023-02-28T00:03:48;2.70;49.70
77985;DHT22;67177;47.240;-1.546;2023-02-28T00:06:14;2.70;49.80
77985;DHT22;67177;47.240;-1.546;2023-02-28T00:08:40;2.70;50.00
77985;DHT22;67177;47.240;-1.546;2023-02-28T00:11:10;2.70;50.20
77985;DHT22;67177;47.240;-1.546;2023-02-28T00:13:38;2.70;50.50
77985;DHT22;67177;47.240;-1.546;2023-02-28T00:16:10;2.70;50.60
77985;DHT22;67177;47.240;-1.546;2023-02-28T00:18:36;2.70;50.80
77985;DHT22;67177;47.240;-1.546;2023-02-28T00:21:03;2.60;50.90
77985;DHT22;67177;47.240;-1.546;2023-02-28T00:23:29;2.60;50.90
77985;DHT22;67177;47.240;-1.546;2023-02-28T00:25:55;2.60;50.90
77985;DHT22;67177;47.240;-1.546;2023-02-28T00:28:21;2.60;51.10
77985;DHT22;67177;47.240;-1.546;2023-02-28T00:30:46;2.60;51.20
77985;DHT22;67177;47.240;-1.546;2023-02-28T00:33:12;2.60;51.20
77985;DHT22;67177;47.240;-1.546;2023-02-28T00:35:38;2.60;51.20
77985;DHT22;67177;47.240;-1.546;2023-02-28T00:38:04;2.60;51.30
77985;DHT22;67177;47.240;-1.546;2023-02-28T00:40:29;2.50;51.60
77985;DHT22;67177;47.240;-1.546;2023-02-28T00:42:55;2.50;51.60
77985;DHT22;67177;47.240;-1.546;2023-02-28T00:45:21;2.50;51.70
77985;DHT22;67177;47.240;-1.546;2023-02-28T00:47:46;2.50;51.70
77985;DHT22;67177;47.240;-1.546;2023-02-28T00:50:18;2.50;51.70
77985;DHT22;67177;47.240;-1.546;2023-02-28T00:52:45;2.50;52.00
77985;DHT22;67177;47.240;-1.546;2023-02-28T00:55:11;2.50;52.00
77985;DHT22;67177;47.240;-1.546;2023-02-28T00:57:36;2.50;52.30
77985;DHT22;67177;47.240;-1.546;2023-02-28T01:00:04;2.50;52.10
77985;DHT22;67177;47.240;-1.546;2023-02-28T01:02:30;2.50;52.10
77985;DHT22;67177;47.240;-1.546;2023-02-28T01:04:55;2.50;52.20
77985;DHT22;67177;47.240;-1.546;2023-02-28T01:07:22;2.50;52.30
77985;DHT22;67177;47.240;-1.546;2023-02-28T01:09:48;2.40;52.50
77985;DHT22;67177;47.240;-1.546;2023-02-28T01:12:15;2.40;52.60
77985;DHT22;67177;47.240;-1.546;2023-02-28T01:14:40;2.40;52.60
77985;DHT22;67177;47.240;-1.546;2023-02-28T01:17:06;2.40;52.70
77985;DHT22;67177;47.240;-1.546;2023-02-28T01:19:32;2.40;52.90
77985;DHT22;67177;47.240;-1.546;2023-02-28T01:22:01;2.30;53.00
77985;DHT22;67177;47.240;-1.546;2023-02-28T01:24:28;2.30;53.10
77985;DHT22;67177;47.240;-1.546;2023-02-28T01:26:53;2.20;53.20
77985;DHT22;67177;47.240;-1.546;2023-02-28T01:29:19;2.20;53.20
77985;DHT22;67177;47.240;-1.546;2023-02-28T01:31:45;2.20;53.30
77985;DHT22;67177;47.240;-1.546;2023-02-28T01:34:10;2.20;53.30
77985;DHT22;67177;47.240;-1.546;2023-02-28T01:36:36;2.20;53.20
77985;DHT22;67177;47.240;-1.546;2023-02-28T01:39:03;2.20;53.20
77985;DHT22;67177;47.240;-1.546;2023-02-28T01:41:32;2.20;53.10
77985;DHT22;67177;47.240;-1.546;2023-02-28T01:44:54;2.20;53.20
77985;DHT22;67177;47.240;-1.546;2023-02-28T01:46:52;2.10;53.30
77985;DHT22;67177;47.240;-1.546;2023-02-28T01:49:18;2.10;53.60
77985;DHT22;67177;47.240;-1.546;2023-02-28T01:51:56;2.10;53.70
77985;DHT22;67177;47.240;-1.546;2023-02-28T01:54:31;2.00;53.80
77985;DHT22;67177;47.240;-1.546;2023-02-28T01:59:31;2.00;53.90
77985;DHT22;67177;47.240;-1.546;2023-02-28T02:01:58;2.00;53.90
77985;DHT22;67177;47.240;-1.546;2023-02-28T02:04:27;2.00;53.90
77985;DHT22;67177;47.240;-1.546;2023-02-28T02:06:58;2.00;54.00
77985;DHT22;67177;47.240;-1.546;2023-02-28T02:09:24;2.00;54.00
77985;DHT22;67177;47.240;-1.546;2023-02-28T02:11:50;1.90;54.00
77985;DHT22;67177;47.240;-1.546;2023-02-28T02:17:14;1.90;54.10
77985;DHT22;67177;47.240;-1.546;2023-02-28T02:22:42;1.80;54.30
77985;DHT22;67177;47.240;-1.546;2023-02-28T02:29:20;1.80;54.40
77985;DHT22;67177;47.240;-1.546;2023-02-28T02:40:22;1.70;54.70
77985;DHT22;67177;47.240;-1.546;2023-02-28T02:42:55;1.70;54.80
77985;DHT22;67177;47.240;-1.546;2023-02-28T02:45:44;1.60;55.00
77985;DHT22;67177;47.240;-1.546;2023-02-28T02:48:13;1.60;55.20
77985;DHT22;67177;47.240;-1.546;2023-02-28T02:50:48;1.60;55.20
77985;DHT22;67177;47.240;-1.546;2023-02-28T02:53:17;1.50;55.40
77985;DHT22;67177;47.240;-1.546;2023-02-28T02:55:47;1.50;55.60
77985;DHT22;67177;47.240;-1.546;2023-02-28T02:58:22;1.50;55.50
77985;DHT22;67177;47.240;-1.546;2023-02-28T03:00:53;1.50;55.50
77985;DHT22;67177;47.240;-1.546;2023-02-28T03:03:21;1.50;55.50
77985;DHT22;67177;47.240;-1.546;2023-02-28T03:05:55;1.50;55.50
77985;DHT22;67177;47.240;-1.546;2023-02-28T03:08:22;1.50;55.60
77985;DHT22;67177;47.240;-1.546;2023-02-28T03:10:52;1.50;55.60
77985;DHT22;67177;47.240;-1.546;2023-02-28T03:16:02;1.50;55.60
77985;DHT22;67177;47.240;-1.546;2023-02-28T03:21:04;1.50;55.60
77985;DHT22;67177;47.240;-1.546;2023-02-28T03:23:41;1.50;55.70
77985;DHT22;67177;47.240;-1.546;2023-02-28T03:26:21;1.40;55.80
77985;DHT22;67177;47.240;-1.546;2023-02-28T03:29:05;1.40;56.00
77985;DHT22;67177;47.240;-1.546;2023-02-28T03:31:38;1.40;56.30
77985;DHT22;67177;47.240;-1.546;2023-02-28T03:34:19;1.30;56.30
77985;DHT22;67177;47.240;-1.546;2023-02-28T03:36:57;1.30;56.30
77985;DHT22;67177;47.240;-1.546;2023-02-28T03:39:34;1.30;56.30
77985;DHT22;67177;47.240;-1.546;2023-02-28T03:42:07;1.30;56.30
77985;DHT22;67177;47.240;-1.546;2023-02-28T03:44:45;1.30;56.30
77985;DHT22;67177;47.240;-1.546;2023-02-28T03:47:42;1.30;56.20
77985;DHT22;67177;47.240;-1.546;2023-02-28T03:53:02;1.30;56.30
77985;DHT22;67177;47.240;-1.546;2023-02-28T03:55:34;1.30;56.30
77985;DHT22;67177;47.240;-1.546;2023-02-28T04:00:47;1.30;56.40
77985;DHT22;67177;47.240;-1.546;2023-02-28T04:03:15;1.20;56.60
77985;DHT22;67177;47.240;-1.546;2023-02-28T04:05:53;1.20;56.80
77985;DHT22;67177;47.240;-1.546;2023-02-28T04:08:20;1.10;57.00
77985;DHT22;67177;47.240;-1.546;2023-02-28T04:11:01;1.10;57.00
77985;DHT22;67177;47.240;-1.546;2023-02-28T04:13:29;1.10;56.90
77985;DHT22;67177;47.240;-1.546;2023-02-28T04:15:55;1.10;56.90
77985;DHT22;67177;47.240;-1.546;2023-02-28T04:18:21;1.10;56.80
77985;DHT22;67177;47.240;-1.546;2023-02-28T04:20:46;1.20;56.80
77985;DHT22;67177;47.240;-1.546;2023-02-28T04:23:12;1.20;56.90
77985;DHT22;67177;47.240;-1.546;2023-02-28T04:25:37;1.10;56.90
77985;DHT22;67177;47.240;-1.546;2023-02-28T04:28:05;1.10;57.00
77985;DHT22;67177;47.240;-1.546;2023-02-28T04:30:31;1.10;57.20
77985;DHT22;67177;47.240;-1.546;2023-02-28T04:32:58;1.10;57.10
77985;DHT22;67177;47.240;-1.546;2023-02-28T04:35:23;1.10;57.20
77985;DHT22;67177;47.240;-1.546;2023-02-28T04:37:49;1.10;57.10
77985;DHT22;67177;47.240;-1.546;2023-02-28T04:40:15;1.10;57.10
77985;DHT22;67177;47.240;-1.546;2023-02-28T04:42:41;1.10;57.10
77985;DHT22;67177;47.240;-1.546;2023-02-28T04:45:07;1.10;57.20
77985;DHT22;67177;47.240;-1.546;2023-02-28T04:47:35;1.10;57.20
77985;DHT22;67177;47.240;-1.546;2023-02-28T04:50:01;1.10;57.20
77985;DHT22;67177;47.240;-1.546;2023-02-28T04:52:27;1.10;57.30
77985;DHT22;67177;47.240;-1.546;2023-02-28T04:54:53;1.10;57.30
77985;DHT22;67177;47.240;-1.546;2023-02-28T04:57:19;1.00;57.40
77985;DHT22;67177;47.240;-1.546;2023-02-28T04:59:44;1.00;57.50
77985;DHT22;67177;47.240;-1.546;2023-02-28T05:02:10;1.00;57.60
77985;DHT22;67177;47.240;-1.546;2023-02-28T05:04:36;1.00;57.90
77985;DHT22;67177;47.240;-1.546;2023-02-28T05:07:02;1.00;57.80
77985;DHT22;67177;47.240;-1.546;2023-02-28T05:09:28;1.00;57.90
77985;DHT22;67177;47.240;-1.546;2023-02-28T05:11:55;1.00;57.90
77985;DHT22;67177;47.240;-1.546;2023-02-28T05:14:21;1.00;57.80
77985;DHT22;67177;47.240;-1.546;2023-02-28T05:16:47;1.00;57.70
77985;DHT22;67177;47.240;-1.546;2023-02-28T05:19:12;1.00;57.70
77985;DHT22;67177;47.240;-1.546;2023-02-28T05:21:54;1.00;57.80
77985;DHT22;67177;47.240;-1.546;2023-02-28T05:24:20;1.00;57.80
77985;DHT22;67177;47.240;-1.546;2023-02-28T05:26:49;1.00;57.70
77985;DHT22;67177;47.240;-1.546;2023-02-28T05:29:16;1.00;57.80
77985;DHT22;67177;47.240;-1.546;2023-02-28T05:31:42;0.90;57.80
77985;DHT22;67177;47.240;-1.546;2023-02-28T05:34:07;0.90;58.00
77985;DHT22;67177;47.240;-1.546;2023-02-28T05:36:33;0.90;58.10
77985;DHT22;67177;47.240;-1.546;2023-02-28T05:38:59;0.90;58.10
77985;DHT22;67177;47.240;-1.546;2023-02-28T05:41:25;0.90;58.00
77985;DHT22;67177;47.240;-1.546;2023-02-28T05:43:51;0.90;57.90
77985;DHT22;67177;47.240;-1.546;2023-02-28T05:46:17;0.90;58.10
77985;DHT22;67177;47.240;-1.546;2023-02-28T05:48:45;0.80;58.10
77985;DHT22;67177;47.240;-1.546;2023-02-28T05:51:11;0.80;58.20
77985;DHT22;67177;47.240;-1.546;2023-02-28T05:53:36;0.80;58.20
77985;DHT22;67177;47.240;-1.546;2023-02-28T05:56:03;0.80;58.30
77985;DHT22;67177;47.240;-1.546;2023-02-28T05:58:29;0.80;58.40
77985;DHT22;67177;47.240;-1.546;2023-02-28T06:00:59;0.80;58.40
77985;DHT22;67177;47.240;-1.546;2023-02-28T06:03:26;0.80;58.50
77985;DHT22;67177;47.240;-1.546;2023-02-28T06:05:51;0.80;58.40
77985;DHT22;67177;47.240;-1.546;2023-02-28T06:08:17;0.80;58.40
77985;DHT22;67177;47.240;-1.546;2023-02-28T06:10:43;0.80;58.30
77985;DHT22;67177;47.240;-1.546;2023-02-28T06:13:10;0.80;58.30
77985;DHT22;67177;47.240;-1.546;2023-02-28T06:15:37;0.80;58.40
77985;DHT22;67177;47.240;-1.546;2023-02-28T06:18:03;0.80;58.60
77985;DHT22;67177;47.240;-1.546;2023-02-28T06:20:28;0.80;58.70
77985;DHT22;67177;47.240;-1.546;2023-02-28T06:22:57;0.70;58.60
77985;DHT22;67177;47.240;-1.546;2023-02-28T06:25:27;0.70;58.60
77985;DHT22;67177;47.240;-1.546;2023-02-28T06:27:53;0.70;58.50
77985;DHT22;67177;47.240;-1.546;2023-02-28T06:30:19;0.70;58.70
77985;DHT22;67177;47.240;-1.546;2023-02-28T06:32:49;0.70;58.80
77985;DHT22;67177;47.240;-1.546;2023-02-28T06:35:14;0.70;58.80
77985;DHT22;67177;47.240;-1.546;2023-02-28T06:37:40;0.70;58.90
77985;DHT22;67177;47.240;-1.546;2023-02-28T06:40:08;0.60;59.00
77985;DHT22;67177;47.240;-1.546;2023-02-28T06:42:34;0.60;59.10
77985;DHT22;67177;47.240;-1.546;2023-02-28T06:45:00;0.60;59.20
77985;DHT22;67177;47.240;-1.546;2023-02-28T06:47:30;0.60;59.30
77985;DHT22;67177;47.240;-1.546;2023-02-28T06:49:55;0.60;59.40
77985;DHT22;67177;47.240;-1.546;2023-02-28T06:52:21;0.60;59.30
77985;DHT22;67177;47.240;-1.546;2023-02-28T06:54:47;0.60;59.20
77985;DHT22;67177;47.240;-1.546;2023-02-28T06:57:26;0.60;59.30
77985;DHT22;67177;47.240;-1.546;2023-02-28T06:59:52;0.60;59.30
77985;DHT22;67177;47.240;-1.546;2023-02-28T07:02:18;0.60;59.30
77985;DHT22;67177;47.240;-1.546;2023-02-28T07:04:43;0.60;59.30
77985;DHT22;67177;47.240;-1.546;2023-02-28T07:07:10;0.70;59.40
77985;DHT22;67177;47.240;-1.546;2023-02-28T07:09:35;0.70;59.40
77985;DHT22;67177;47.240;-1.546;2023-02-28T07:12:01;0.70;59.30
77985;DHT22;67177;47.240;-1.546;2023-02-28T07:14:27;0.80;59.30
77985;DHT22;67177;47.240;-1.546;2023-02-28T07:16:52;0.80;59.10
77985;DHT22;67177;47.240;-1.546;2023-02-28T07:19:18;0.80;59.10
77985;DHT22;67177;47.240;-1.546;2023-02-28T07:21:43;0.80;59.10
77985;DHT22;67177;47.240;-1.546;2023-02-28T07:24:10;0.80;59.10
77985;DHT22;67177;47.240;-1.546;2023-02-28T07:26:36;0.80;59.20
77985;DHT22;67177;47.240;-1.546;2023-02-28T07:29:01;0.80;59.30
77985;DHT22;67177;47.240;-1.546;2023-02-28T07:31:27;0.80;59.40
77985;DHT22;67177;47.240;-1.546;2023-02-28T07:33:53;0.90;59.50
77985;DHT22;67177;47.240;-1.546;2023-02-28T07:36:19;0.80;59.70
77985;DHT22;67177;47.240;-1.546;2023-02-28T07:38:46;0.90;59.70
77985;DHT22;67177;47.240;-1.546;2023-02-28T07:41:14;0.90;59.60
77985;DHT22;67177;47.240;-1.546;2023-02-28T07:43:40;0.90;59.50
77985;DHT22;67177;47.240;-1.546;2023-02-28T07:46:09;1.00;59.40
77985;DHT22;67177;47.240;-1.546;2023-02-28T07:48:35;1.00;59.30
77985;DHT22;67177;47.240;-1.546;2023-02-28T07:51:01;1.10;59.50
77985;DHT22;67177;47.240;-1.546;2023-02-28T07:53:28;1.10;59.50
77985;DHT22;67177;47.240;-1.546;2023-02-28T07:55:57;1.10;59.50
77985;DHT22;67177;47.240;-1.546;2023-02-28T07:58:24;1.20;59.50
77985;DHT22;67177;47.240;-1.546;2023-02-28T08:00:50;1.20;59.70
77985;DHT22;67177;47.240;-1.546;2023-02-28T08:03:18;1.30;59.60
77985;DHT22;67177;47.240;-1.546;2023-02-28T08:05:44;1.30;59.60
77985;DHT22;67177;47.240;-1.546;2023-02-28T08:08:09;1.40;59.60
77985;DHT22;67177;47.240;-1.546;2023-02-28T08:10:35;1.40;59.60
77985;DHT22;67177;47.240;-1.546;2023-02-28T08:13:01;1.50;59.60
77985;DHT22;67177;47.240;-1.546;2023-02-28T08:15:27;1.50;59.50
77985;DHT22;67177;47.240;-1.546;2023-02-28T08:17:53;1.50;59.50
77985;DHT22;67177;47.240;-1.546;2023-02-28T08:20:18;1.50;59.40
77985;DHT22;67177;47.240;-1.546;2023-02-28T08:22:44;1.60;59.40
77985;DHT22;67177;47.240;-1.546;2023-02-28T08:25:10;1.70;59.40
77985;DHT22;67177;47.240;-1.546;2023-02-28T08:27:36;1.70;59.40
77985;DHT22;67177;47.240;-1.546;2023-02-28T08:30:02;1.60;59.30
77985;DHT22;67177;47.240;-1.546;2023-02-28T08:32:28;1.60;59.50
77985;DHT22;67177;47.240;-1.546;2023-02-28T08:34:54;1.60;59.40
77985;DHT22;67177;47.240;-1.546;2023-02-28T08:37:19;1.70;59.50
77985;DHT22;67177;47.240;-1.546;2023-02-28T08:39:45;1.70;59.30
77985;DHT22;67177;47.240;-1.546;2023-02-28T08:42:11;1.70;59.20
77985;DHT22;67177;47.240;-1.546;2023-02-28T08:44:36;1.80;59.30
77985;DHT22;67177;47.240;-1.546;2023-02-28T08:47:02;1.80;59.20
77985;DHT22;67177;47.240;-1.546;2023-02-28T08:49:28;1.80;59.20
77985;DHT22;67177;47.240;-1.546;2023-02-28T08:51:54;1.90;59.10
77985;DHT22;67177;47.240;-1.546;2023-02-28T08:54:21;1.90;58.90
77985;DHT22;67177;47.240;-1.546;2023-02-28T08:56:47;2.00;58.90
77985;DHT22;67177;47.240;-1.546;2023-02-28T08:59:13;2.00;58.70
77985;DHT22;67177;47.240;-1.546;2023-02-28T09:01:39;2.10;58.60
77985;DHT22;67177;47.240;-1.546;2023-02-28T09:04:06;2.10;58.40
77985;DHT22;67177;47.240;-1.546;2023-02-28T09:06:34;2.10;58.40
77985;DHT22;67177;47.240;-1.546;2023-02-28T09:09:00;2.20;58.30
77985;DHT22;67177;47.240;-1.546;2023-02-28T09:11:27;2.20;58.30
77985;DHT22;67177;47.240;-1.546;2023-02-28T09:13:53;2.30;58.30
77985;DHT22;67177;47.240;-1.546;2023-02-28T09:16:18;2.40;58.10
77985;DHT22;67177;47.240;-1.546;2023-02-28T09:18:44;2.50;58.00
77985;DHT22;67177;47.240;-1.546;2023-02-28T09:21:13;2.50;57.70
77985;DHT22;67177;47.240;-1.546;2023-02-28T09:23:40;2.60;57.00
77985;DHT22;67177;47.240;-1.546;2023-02-28T09:26:07;2.60;56.50
77985;DHT22;67177;47.240;-1.546;2023-02-28T09:28:33;2.60;56.70
77985;DHT22;67177;47.240;-1.546;2023-02-28T09:30:59;2.70;56.50
77985;DHT22;67177;47.240;-1.546;2023-02-28T09:33:25;2.70;56.30
77985;DHT22;67177;47.240;-1.546;2023-02-28T09:35:57;2.80;56.20
77985;DHT22;67177;47.240;-1.546;2023-02-28T09:38:23;2.80;55.90
77985;DHT22;67177;47.240;-1.546;2023-02-28T09:41:03;2.90;55.70
77985;DHT22;67177;47.240;-1.546;2023-02-28T09:43:34;2.90;55.50
77985;DHT22;67177;47.240;-1.546;2023-02-28T09:48:47;3.10;54.90
77985;DHT22;67177;47.240;-1.546;2023-02-28T09:53:54;3.20;54.40
77985;DHT22;67177;47.240;-1.546;2023-02-28T09:56:21;3.30;54.00
77985;DHT22;67177;47.240;-1.546;2023-02-28T09:58:56;3.40;53.80
77985;DHT22;67177;47.240;-1.546;2023-02-28T10:01:42;3.40;53.70
77985;DHT22;67177;47.240;-1.546;2023-02-28T10:07:04;3.60;53.00
77985;DHT22;67177;47.240;-1.546;2023-02-28T10:09:33;3.70;52.80
77985;DHT22;67177;47.240;-1.546;2023-02-28T10:12:04;3.70;52.40
77985;DHT22;67177;47.240;-1.546;2023-02-28T10:14:32;3.80;51.70
77985;DHT22;67177;47.240;-1.546;2023-02-28T10:17:06;3.90;51.10
77985;DHT22;67177;47.240;-1.546;2023-02-28T10:19:54;4.00;49.50
77985;DHT22;67177;47.240;-1.546;2023-02-28T10:25:34;4.00;47.10
77985;DHT22;67177;47.240;-1.546;2023-02-28T10:28:14;4.00;47.20
77985;DHT22;67177;47.240;-1.546;2023-02-28T10:30:48;4.10;47.80
77985;DHT22;67177;47.240;-1.546;2023-02-28T10:35:51;4.20;45.40
77985;DHT22;67177;47.240;-1.546;2023-02-28T10:38:20;4.20;45.30
77985;DHT22;67177;47.240;-1.546;2023-02-28T10:40:46;4.30;45.40
77985;DHT22;67177;47.240;-1.546;2023-02-28T10:58:47;4.60;42.50
77985;DHT22;67177;47.240;-1.546;2023-02-28T11:04:01;4.70;42.30
77985;DHT22;67177;47.240;-1.546;2023-02-28T11:06:32;4.70;41.60
77985;DHT22;67177;47.240;-1.546;2023-02-28T11:09:03;4.80;41.90
77985;DHT22;67177;47.240;-1.546;2023-02-28T11:11:31;4.80;41.90
77985;DHT22;67177;47.240;-1.546;2023-02-28T11:14:27;4.90;41.10
77985;DHT22;67177;47.240;-1.546;2023-02-28T11:16:54;4.90;40.60
77985;DHT22;67177;47.240;-1.546;2023-02-28T11:19:33;4.90;40.50
77985;DHT22;67177;47.240;-1.546;2023-02-28T11:22:02;5.00;40.50
77985;DHT22;67177;47.240;-1.546;2023-02-28T11:24:33;5.00;40.90
77985;DHT22;67177;47.240;-1.546;2023-02-28T11:27:01;5.00;40.40
77985;DHT22;67177;47.240;-1.546;2023-02-28T11:29:28;5.00;40.20
77985;DHT22;67177;47.240;-1.546;2023-02-28T11:32:15;5.10;39.80
77985;DHT22;67177;47.240;-1.546;2023-02-28T11:34:42;5.10;40.30
77985;DHT22;67177;47.240;-1.546;2023-02-28T11:37:19;5.10;40.60
77985;DHT22;67177;47.240;-1.546;2023-02-28T11:39:45;5.20;40.40
77985;DHT22;67177;47.240;-1.546;2023-02-28T11:42:30;5.20;40.30
77985;DHT22;67177;47.240;-1.546;2023-02-28T11:51:05;5.30;40.10
77985;DHT22;67177;47.240;-1.546;2023-02-28T11:53:50;5.30;40.30
77985;DHT22;67177;47.240;-1.546;2023-02-28T11:56:38;5.30;40.00
77985;DHT22;67177;47.240;-1.546;2023-02-28T12:02:30;5.40;39.90
77985;DHT22;67177;47.240;-1.546;2023-02-28T12:05:30;5.40;40.30
77985;DHT22;67177;47.240;-1.546;2023-02-28T12:13:41;5.60;40.30
77985;DHT22;67177;47.240;-1.546;2023-02-28T12:24:08;5.60;40.00
77985;DHT22;67177;47.240;-1.546;2023-02-28T12:26:45;5.60;39.50
77985;DHT22;67177;47.240;-1.546;2023-02-28T12:34:22;5.60;39.70
77985;DHT22;67177;47.240;-1.546;2023-02-28T12:36:52;5.70;39.80
77985;DHT22;67177;47.240;-1.546;2023-02-28T12:39:25;5.70;40.00
77985;DHT22;67177;47.240;-1.546;2023-02-28T12:42:00;5.70;40.30
77985;DHT22;67177;47.240;-1.546;2023-02-28T12:47:11;5.80;40.10
77985;DHT22;67177;47.240;-1.546;2023-02-28T12:49:44;5.80;40.20
77985;DHT22;67177;47.240;-1.546;2023-02-28T12:52:13;5.90;40.20
77985;DHT22;67177;47.240;-1.546;2023-02-28T12:55:50;5.90;40.10
77985;DHT22;67177;47.240;-1.546;2023-02-28T13:00:34;6.00;40.30
77985;DHT22;67177;47.240;-1.546;2023-02-28T13:11:06;6.20;40.60
77985;DHT22;67177;47.240;-1.546;2023-02-28T13:13:32;6.30;40.70
77985;DHT22;67177;47.240;-1.546;2023-02-28T13:16:05;6.30;40.60
77985;DHT22;67177;47.240;-1.546;2023-02-28T13:18:49;6.30;40.50
77985;DHT22;67177;47.240;-1.546;2023-02-28T13:21:42;6.30;40.60
77985;DHT22;67177;47.240;-1.546;2023-02-28T13:24:08;6.30;40.80
77985;DHT22;67177;47.240;-1.546;2023-02-28T13:34:27;6.60;41.10
77985;DHT22;67177;47.240;-1.546;2023-02-28T13:47:40;6.80;40.60
77985;DHT22;67177;47.240;-1.546;2023-02-28T14:04:21;6.90;41.20
77985;DHT22;67177;47.240;-1.546;2023-02-28T14:06:54;7.00;41.10
77985;DHT22;67177;47.240;-1.546;2023-02-28T14:09:30;7.00;40.80
77985;DHT22;67177;47.240;-1.546;2023-02-28T14:11:57;7.00;39.90
77985;DHT22;67177;47.240;-1.546;2023-02-28T14:17:15;7.00;40.50
77985;DHT22;67177;47.240;-1.546;2023-02-28T14:19:44;7.10;40.50
77985;DHT22;67177;47.240;-1.546;2023-02-28T14:25:16;7.10;40.20
77985;DHT22;67177;47.240;-1.546;2023-02-28T14:28:04;7.10;40.20
77985;DHT22;67177;47.240;-1.546;2023-02-28T14:36:21;7.30;40.70
77985;DHT22;67177;47.240;-1.546;2023-02-28T14:38:55;7.30;40.60
77985;DHT22;67177;47.240;-1.546;2023-02-28T14:41:24;7.40;40.90
77985;DHT22;67177;47.240;-1.546;2023-02-28T14:43:57;7.60;40.70
77985;DHT22;67177;47.240;-1.546;2023-02-28T14:46:28;7.60;40.80
77985;DHT22;67177;47.240;-1.546;2023-02-28T14:48:54;7.60;41.00
77985;DHT22;67177;47.240;-1.546;2023-02-28T14:51:21;7.60;40.80
77985;DHT22;67177;47.240;-1.546;2023-02-28T14:53:51;7.60;40.90
77985;DHT22;67177;47.240;-1.546;2023-02-28T14:56:38;7.70;41.00
77985;DHT22;67177;47.240;-1.546;2023-02-28T14:59:18;7.80;40.90
77985;DHT22;67177;47.240;-1.546;2023-02-28T15:01:48;7.80;41.20
77985;DHT22;67177;47.240;-1.546;2023-02-28T15:04:22;7.80;41.30
77985;DHT22;67177;47.240;-1.546;2023-02-28T15:07:11;7.80;41.50
77985;DHT22;67177;47.240;-1.546;2023-02-28T15:09:39;7.90;41.60
77985;DHT22;67177;47.240;-1.546;2023-02-28T15:12:05;7.90;41.60
77985;DHT22;67177;47.240;-1.546;2023-02-28T15:14:31;7.90;41.80
77985;DHT22;67177;47.240;-1.546;2023-02-28T15:17:07;7.70;41.70
77985;DHT22;67177;47.240;-1.546;2023-02-28T15:19:36;7.70;41.70
77985;DHT22;67177;47.240;-1.546;2023-02-28T15:22:10;7.80;41.90
77985;DHT22;67177;47.240;-1.546;2023-02-28T15:27:09;7.70;42.00
77985;DHT22;67177;47.240;-1.546;2023-02-28T15:29:59;7.70;42.20
77985;DHT22;67177;47.240;-1.546;2023-02-28T15:34:58;7.70;42.10
77985;DHT22;67177;47.240;-1.546;2023-02-28T15:37:45;7.80;42.10
77985;DHT22;67177;47.240;-1.546;2023-02-28T15:40:26;7.90;42.00
77985;DHT22;67177;47.240;-1.546;2023-02-28T15:45:48;7.90;42.10
77985;DHT22;67177;47.240;-1.546;2023-02-28T15:48:30;7.90;42.10
77985;DHT22;67177;47.240;-1.546;2023-02-28T15:51:07;7.90;42.10
77985;DHT22;67177;47.240;-1.546;2023-02-28T15:53:59;7.90;42.30
77985;DHT22;67177;47.240;-1.546;2023-02-28T15:56:27;7.80;42.60
77985;DHT22;67177;47.240;-1.546;2023-02-28T15:58:55;7.70;42.60
77985;DHT22;67177;47.240;-1.546;2023-02-28T16:01:25;7.70;42.70
77985;DHT22;67177;47.240;-1.546;2023-02-28T16:03:56;7.60;43.00
77985;DHT22;67177;47.240;-1.546;2023-02-28T16:06:33;7.60;43.00
77985;DHT22;67177;47.240;-1.546;2023-02-28T16:08:59;7.60;43.20
77985;DHT22;67177;47.240;-1.546;2023-02-28T16:11:25;7.70;43.30
77985;DHT22;67177;47.240;-1.546;2023-02-28T16:13:51;7.80;43.50
77985;DHT22;67177;47.240;-1.546;2023-02-28T16:16:19;7.80;43.60
77985;DHT22;67177;47.240;-1.546;2023-02-28T16:18:45;7.80;43.60
77985;DHT22;67177;47.240;-1.546;2023-02-28T16:21:11;7.90;43.50
77985;DHT22;67177;47.240;-1.546;2023-02-28T16:23:37;7.80;43.60
77985;DHT22;67177;47.240;-1.546;2023-02-28T16:26:03;7.70;43.90
77985;DHT22;67177;47.240;-1.546;2023-02-28T16:28:35;7.60;43.90
77985;DHT22;67177;47.240;-1.546;2023-02-28T16:31:02;7.50;44.00
77985;DHT22;67177;47.240;-1.546;2023-02-28T16:33:30;7.40;44.10
77985;DHT22;67177;47.240;-1.546;2023-02-28T16:35:56;7.40;44.10
77985;DHT22;67177;47.240;-1.546;2023-02-28T16:38:22;7.30;44.20
77985;DHT22;67177;47.240;-1.546;2023-02-28T16:40:50;7.30;44.20
77985;DHT22;67177;47.240;-1.546;2023-02-28T16:43:19;7.30;44.50
77985;DHT22;67177;47.240;-1.546;2023-02-28T16:45:46;7.40;44.60
77985;DHT22;67177;47.240;-1.546;2023-02-28T16:48:14;7.40;44.60
77985;DHT22;67177;47.240;-1.546;2023-02-28T16:50:40;7.40;44.80
77985;DHT22;67177;47.240;-1.546;2023-02-28T16:53:06;7.30;44.70
77985;DHT22;67177;47.240;-1.546;2023-02-28T16:55:32;7.20;44.80
77985;DHT22;67177;47.240;-1.546;2023-02-28T16:58:00;7.20;44.90
77985;DHT22;67177;47.240;-1.546;2023-02-28T17:00:28;7.20;45.10
77985;DHT22;67177;47.240;-1.546;2023-02-28T17:02:55;7.20;45.30
77985;DHT22;67177;47.240;-1.546;2023-02-28T17:05:21;7.10;45.70
77985;DHT22;67177;47.240;-1.546;2023-02-28T17:07:47;7.00;46.10
77985;DHT22;67177;47.240;-1.546;2023-02-28T17:10:21;6.90;46.60
77985;DHT22;67177;47.240;-1.546;2023-02-28T17:12:47;6.80;46.80
77985;DHT22;67177;47.240;-1.546;2023-02-28T17:15:16;6.70;47.30
77985;DHT22;67177;47.240;-1.546;2023-02-28T17:17:43;6.60;48.00
77985;DHT22;67177;47.240;-1.546;2023-02-28T17:20:17;6.50;48.10
77985;DHT22;67177;47.240;-1.546;2023-02-28T17:22:43;6.40;48.80
77985;DHT22;67177;47.240;-1.546;2023-02-28T17:25:10;6.30;49.20
77985;DHT22;67177;47.240;-1.546;2023-02-28T17:27:36;6.20;49.60
77985;DHT22;67177;47.240;-1.546;2023-02-28T17:30:17;6.20;49.60
77985;DHT22;67177;47.240;-1.546;2023-02-28T17:32:43;6.10;49.50
77985;DHT22;67177;47.240;-1.546;2023-02-28T17:35:09;6.10;50.40
77985;DHT22;67177;47.240;-1.546;2023-02-28T17:37:35;6.10;50.60
77985;DHT22;67177;47.240;-1.546;2023-02-28T17:40:01;6.10;50.80
77985;DHT22;67177;47.240;-1.546;2023-02-28T17:42:27;6.10;51.30
77985;DHT22;67177;47.240;-1.546;2023-02-28T17:44:52;6.10;51.50
77985;DHT22;67177;47.240;-1.546;2023-02-28T17:47:18;6.00;51.90
77985;DHT22;67177;47.240;-1.546;2023-02-28T17:49:44;6.00;52.70
77985;DHT22;67177;47.240;-1.546;2023-02-28T17:52:09;5.90;52.80
77985;DHT22;67177;47.240;-1.546;2023-02-28T17:54:35;5.90;53.50
77985;DHT22;67177;47.240;-1.546;2023-02-28T17:57:01;5.90;53.50
77985;DHT22;67177;47.240;-1.546;2023-02-28T17:59:27;5.80;54.00
77985;DHT22;67177;47.240;-1.546;2023-02-28T18:02:02;5.80;54.10
77985;DHT22;67177;47.240;-1.546;2023-02-28T18:04:29;5.80;54.20
77985;DHT22;67177;47.240;-1.546;2023-02-28T18:06:55;5.80;53.90
77985;DHT22;67177;47.240;-1.546;2023-02-28T18:09:26;5.80;55.00
77985;DHT22;67177;47.240;-1.546;2023-02-28T18:11:53;5.70;55.20
77985;DHT22;67177;47.240;-1.546;2023-02-28T18:14:21;5.70;56.00
77985;DHT22;67177;47.240;-1.546;2023-02-28T18:16:49;5.60;55.60
77985;DHT22;67177;47.240;-1.546;2023-02-28T18:19:15;5.60;56.30
77985;DHT22;67177;47.240;-1.546;2023-02-28T18:21:47;5.60;56.10